sensor_id;sensor_type;location;lat;lon;timestamp;P1;durP1;ratioP1;P2;durP2;ratioP2
9968;SDS011;5025;48.890;9.278;2023-05-16T00:00:50;6.30;;;5.80;;
9968;SDS011;5025;48.890;9.278;2023-05-16T00:03:17;6.20;;;5.80;;
9968;SDS011;5025;48.890;9.278;2023-05-16T00:05:43;6.57;;;6.00;;
9968;SDS011;5025;48.890;9.278;2023-05-16T00:08:08;6.03;;;5.63;;
9968;SDS011;5025;48.890;9.278;2023-05-16T00:10:33;5.87;;;5.47;;
9968;SDS011;5025;48.890;9.278;2023-05-16T00:12:59;5.50;;;5.20;;
9968;SDS011;5025;48.890;9.278;2023-05-16T00:15:26;5.57;;;5.17;;
9968;SDS011;5025;48.890;9.278;2023-05-16T00:17:53;5.67;;;5.27;;
9968;SDS011;5025;48.890;9.278;2023-05-16T00:20:22;6.50;;;6.00;;
9968;SDS011;5025;48.890;9.278;2023-05-16T00:22:48;6.07;;;5.60;;
9968;SDS011;5025;48.890;9.278;2023-05-16T00:25:14;6.23;;;5.80;;
9968;SDS011;5025;48.890;9.278;2023-05-16T00:27:40;6.10;;;5.70;;
9968;SDS011;5025;48.890;9.278;2023-05-16T00:30:05;6.10;;;5.70;;
9968;SDS011;5025;48.890;9.278;2023-05-16T00:32:31;6.63;;;6.13;;
9968;SDS011;5025;48.890;9.278;2023-05-16T00:34:56;6.07;;;5.67;;
9968;SDS011;5025;48.890;9.278;2023-05-16T00:37:22;5.80;;;5.40;;
9968;SDS011;5025;48.890;9.278;2023-05-16T00:39:47;5.97;;;5.57;;
9968;SDS011;5025;48.890;9.278;2023-05-16T00:42:12;6.40;;;5.93;;
9968;SDS011;5025;48.890;9.278;2023-05-16T00:44:38;6.43;;;5.90;;
9968;SDS011;5025;48.890;9.278;2023-05-16T00:47:03;6.70;;;6.17;;
9968;SDS011;5025;48.890;9.278;2023-05-16T00:49:28;6.37;;;5.97;;
9968;SDS011;5025;48.890;9.278;2023-05-16T00:51:54;6.93;;;6.37;;
9968;SDS011;5025;48.890;9.278;2023-05-16T00:54:21;6.23;;;5.83;;
9968;SDS011;5025;48.890;9.278;2023-05-16T00:56:47;6.43;;;5.93;;
9968;SDS011;5025;48.890;9.278;2023-05-16T00:59:13;6.43;;;5.97;;
9968;SDS011;5025;48.890;9.278;2023-05-16T01:01:39;7.40;;;6.90;;
9968;SDS011;5025;48.890;9.278;2023-05-16T01:04:05;6.10;;;5.70;;
9968;SDS011;5025;48.890;9.278;2023-05-16T01:06:31;6.67;;;6.17;;
9968;SDS011;5025;48.890;9.278;2023-05-16T01:08:58;6.57;;;6.17;;
9968;SDS011;5025;48.890;9.278;2023-05-16T01:14:11;6.30;;;5.80;;
9968;SDS011;5025;48.890;9.278;2023-05-16T01:17:22;6.50;;;6.00;;
9968;SDS011;5025;48.890;9.278;2023-05-16T01:28:00;7.80;;;7.20;;
9968;SDS011;5025;48.890;9.278;2023-05-16T01:30:31;7.20;;;6.60;;
9968;SDS011;5025;48.890;9.278;2023-05-16T01:32:57;7.30;;;6.70;;
9968;SDS011;5025;48.890;9.278;2023-05-16T01:35:23;7.43;;;6.93;;
9968;SDS011;5025;48.890;9.278;2023-05-16T01:37:57;6.77;;;6.27;;
9968;SDS011;5025;48.890;9.278;2023-05-16T01:40:56;6.57;;;6.07;;
9968;SDS011;5025;48.890;9.278;2023-05-16T01:43:33;6.40;;;5.90;;
9968;SDS011;5025;48.890;9.278;2023-05-16T01:46:05;6.30;;;5.90;;
9968;SDS011;5025;48.890;9.278;2023-05-16T01:48:42;6.87;;;6.37;;
9968;SDS011;5025;48.890;9.278;2023-05-16T01:51:15;6.47;;;6.07;;
9968;SDS011;5025;48.890;9.278;2023-05-16T01:53:42;6.97;;;6.47;;
9968;SDS011;5025;48.890;9.278;2023-05-16T01:56:10;6.90;;;6.40;;
9968;SDS011;5025;48.890;9.278;2023-05-16T01:58:39;7.10;;;6.60;;
9968;SDS011;5025;48.890;9.278;2023-05-16T02:01:05;6.87;;;6.37;;
9968;SDS011;5025;48.890;9.278;2023-05-16T02:03:31;7.63;;;7.03;;
9968;SDS011;5025;48.890;9.278;2023-05-16T02:05:57;7.83;;;7.23;;
9968;SDS011;5025;48.890;9.278;2023-05-16T02:08:22;7.60;;;7.10;;
9968;SDS011;5025;48.890;9.278;2023-05-16T02:10:48;7.07;;;6.57;;
9968;SDS011;5025;48.890;9.278;2023-05-16T02:13:14;7.50;;;6.93;;
9968;SDS011;5025;48.890;9.278;2023-05-16T02:15:39;7.43;;;6.83;;
9968;SDS011;5025;48.890;9.278;2023-05-16T02:18:04;7.20;;;6.67;;
9968;SDS011;5025;48.890;9.278;2023-05-16T02:20:30;7.53;;;7.03;;
9968;SDS011;5025;48.890;9.278;2023-05-16T02:22:55;8.50;;;7.80;;
9968;SDS011;5025;48.890;9.278;2023-05-16T02:25:20;8.63;;;7.93;;
9968;SDS011;5025;48.890;9.278;2023-05-16T02:27:46;8.07;;;7.37;;
9968;SDS011;5025;48.890;9.278;2023-05-16T02:30:11;8.10;;;7.50;;
9968;SDS011;5025;48.890;9.278;2023-05-16T02:32:37;7.77;;;7.17;;
9968;SDS011;5025;48.890;9.278;2023-05-16T02:35:03;8.23;;;7.53;;
9968;SDS011;5025;48.890;9.278;2023-05-16T02:37:29;8.73;;;8.07;;
9968;SDS011;5025;48.890;9.278;2023-05-16T02:39:54;8.07;;;7.47;;
9968;SDS011;5025;48.890;9.278;2023-05-16T02:42:19;8.33;;;7.73;;
9968;SDS011;5025;48.890;9.278;2023-05-16T02:44:45;8.30;;;7.70;;
9968;SDS011;5025;48.890;9.278;2023-05-16T02:47:10;8.37;;;7.57;;
9968;SDS011;5025;48.890;9.278;2023-05-16T02:49:35;8.63;;;7.93;;
9968;SDS011;5025;48.890;9.278;2023-05-16T02:52:00;9.17;;;8.43;;
9968;SDS011;5025;48.890;9.278;2023-05-16T02:54:26;8.77;;;8.07;;
9968;SDS011;5025;48.890;9.278;2023-05-16T02:56:51;9.53;;;8.73;;
9968;SDS011;5025;48.890;9.278;2023-05-16T02:59:16;9.20;;;8.50;;
9968;SDS011;5025;48.890;9.278;2023-05-16T03:01:42;8.60;;;7.90;;
9968;SDS011;5025;48.890;9.278;2023-05-16T03:04:07;8.30;;;7.70;;
9968;SDS011;5025;48.890;9.278;2023-05-16T03:06:32;8.60;;;8.00;;
9968;SDS011;5025;48.890;9.278;2023-05-16T03:08:57;9.67;;;8.93;;
9968;SDS011;5025;48.890;9.278;2023-05-16T03:11:23;8.97;;;8.27;;
9968;SDS011;5025;48.890;9.278;2023-05-16T03:13:49;9.20;;;8.50;;
9968;SDS011;5025;48.890;9.278;2023-05-16T03:16:15;10.33;;;9.53;;
9968;SDS011;5025;48.890;9.278;2023-05-16T03:18:40;10.30;;;9.50;;
9968;SDS011;5025;48.890;9.278;2023-05-16T03:21:06;10.63;;;9.70;;
9968;SDS011;5025;48.890;9.278;2023-05-16T03:23:31;9.50;;;8.70;;
9968;SDS011;5025;48.890;9.278;2023-05-16T03:25:57;9.17;;;8.47;;
9968;SDS011;5025;48.890;9.278;2023-05-16T03:28:22;9.80;;;9.00;;
9968;SDS011;5025;48.890;9.278;2023-05-16T03:30:47;8.57;;;7.97;;
9968;SDS011;5025;48.890;9.278;2023-05-16T03:33:12;9.50;;;8.70;;
9968;SDS011;5025;48.890;9.278;2023-05-16T03:35:38;9.50;;;8.70;;
9968;SDS011;5025;48.890;9.278;2023-05-16T03:38:04;8.90;;;8.20;;
9968;SDS011;5025;48.890;9.278;2023-05-16T03:40:29;9.23;;;8.43;;
9968;SDS011;5025;48.890;9.278;2023-05-16T03:42:55;9.33;;;8.63;;
9968;SDS011;5025;48.890;9.278;2023-05-16T03:45:20;9.50;;;8.80;;
9968;SDS011;5025;48.890;9.278;2023-05-16T03:47:47;10.13;;;9.33;;
9968;SDS011;5025;48.890;9.278;2023-05-16T03:50:13;9.63;;;8.83;;
9968;SDS011;5025;48.890;9.278;2023-05-16T03:52:38;11.20;;;10.30;;
9968;SDS011;5025;48.890;9.278;2023-05-16T03:55:04;11.00;;;10.17;;
9968;SDS011;5025;48.890;9.278;2023-05-16T03:57:30;12.13;;;11.13;;
9968;SDS011;5025;48.890;9.278;2023-05-16T03:59:56;11.53;;;10.63;;
9968;SDS011;5025;48.890;9.278;2023-05-16T04:02:21;12.47;;;11.37;;
9968;SDS011;5025;48.890;9.278;2023-05-16T04:04:47;11.63;;;10.73;;
9968;SDS011;5025;48.890;9.278;2023-05-16T04:07:12;12.70;;;11.50;;
9968;SDS011;5025;48.890;9.278;2023-05-16T04:09:37;12.63;;;11.57;;
9968;SDS011;5025;48.890;9.278;2023-05-16T04:12:03;12.10;;;11.10;;
9968;SDS011;5025;48.890;9.278;2023-05-16T04:14:28;12.83;;;11.77;;
9968;SDS011;5025;48.890;9.278;2023-05-16T04:16:53;12.67;;;11.57;;
9968;SDS011;5025;48.890;9.278;2023-05-16T04:19:19;12.13;;;11.13;;
9968;SDS011;5025;48.890;9.278;2023-05-16T04:21:44;13.53;;;12.27;;
9968;SDS011;5025;48.890;9.278;2023-05-16T04:24:09;13.40;;;12.20;;
9968;SDS011;5025;48.890;9.278;2023-05-16T04:26:35;13.40;;;12.30;;
9968;SDS011;5025;48.890;9.278;2023-05-16T04:29:04;14.03;;;12.73;;
9968;SDS011;5025;48.890;9.278;2023-05-16T04:31:30;14.93;;;13.57;;
9968;SDS011;5025;48.890;9.278;2023-05-16T04:33:55;15.17;;;13.73;;
9968;SDS011;5025;48.890;9.278;2023-05-16T04:36:22;14.77;;;13.47;;
9968;SDS011;5025;48.890;9.278;2023-05-16T04:38:47;17.67;;;16.07;;
9968;SDS011;5025;48.890;9.278;2023-05-16T04:41:12;15.83;;;14.37;;
9968;SDS011;5025;48.890;9.278;2023-05-16T04:43:38;15.47;;;13.97;;
9968;SDS011;5025;48.890;9.278;2023-05-16T04:46:04;15.83;;;14.53;;
9968;SDS011;5025;48.890;9.278;2023-05-16T04:48:31;15.50;;;14.20;;
9968;SDS011;5025;48.890;9.278;2023-05-16T04:50:57;13.23;;;12.13;;
9968;SDS011;5025;48.890;9.278;2023-05-16T04:53:22;12.63;;;11.53;;
9968;SDS011;5025;48.890;9.278;2023-05-16T04:55:47;11.77;;;10.77;;
9968;SDS011;5025;48.890;9.278;2023-05-16T04:58:13;11.27;;;10.37;;
9968;SDS011;5025;48.890;9.278;2023-05-16T05:00:38;11.17;;;10.37;;
9968;SDS011;5025;48.890;9.278;2023-05-16T05:03:03;12.70;;;11.43;;
9968;SDS011;5025;48.890;9.278;2023-05-16T05:05:29;12.70;;;11.60;;
9968;SDS011;5025;48.890;9.278;2023-05-16T05:07:54;12.90;;;11.80;;
9968;SDS011;5025;48.890;9.278;2023-05-16T05:10:19;11.40;;;10.47;;
9968;SDS011;5025;48.890;9.278;2023-05-16T05:12:44;12.63;;;11.53;;
9968;SDS011;5025;48.890;9.278;2023-05-16T05:15:10;13.10;;;12.00;;
9968;SDS011;5025;48.890;9.278;2023-05-16T05:17:35;13.20;;;12.10;;
9968;SDS011;5025;48.890;9.278;2023-05-16T05:20:01;12.90;;;11.80;;
9968;SDS011;5025;48.890;9.278;2023-05-16T05:22:30;14.07;;;12.80;;
9968;SDS011;5025;48.890;9.278;2023-05-16T05:24:56;15.43;;;14.00;;
9968;SDS011;5025;48.890;9.278;2023-05-16T05:27:21;13.60;;;12.40;;
9968;SDS011;5025;48.890;9.278;2023-05-16T05:29:46;13.20;;;12.00;;
9968;SDS011;5025;48.890;9.278;2023-05-16T05:32:12;13.07;;;11.97;;
9968;SDS011;5025;48.890;9.278;2023-05-16T05:34:37;14.93;;;13.63;;
9968;SDS011;5025;48.890;9.278;2023-05-16T05:37:02;13.87;;;12.67;;
9968;SDS011;5025;48.890;9.278;2023-05-16T05:39:28;14.00;;;12.70;;
9968;SDS011;5025;48.890;9.278;2023-05-16T05:41:53;15.10;;;13.70;;
9968;SDS011;5025;48.890;9.278;2023-05-16T05:44:18;16.50;;;15.00;;
9968;SDS011;5025;48.890;9.278;2023-05-16T05:46:44;17.67;;;16.07;;
9968;SDS011;5025;48.890;9.278;2023-05-16T05:49:09;18.43;;;16.63;;
9968;SDS011;5025;48.890;9.278;2023-05-16T05:51:34;19.53;;;17.63;;
9968;SDS011;5025;48.890;9.278;2023-05-16T05:54:00;17.67;;;16.07;;
9968;SDS011;5025;48.890;9.278;2023-05-16T05:56:26;18.80;;;17.07;;
9968;SDS011;5025;48.890;9.278;2023-05-16T05:58:51;17.00;;;15.40;;
9968;SDS011;5025;48.890;9.278;2023-05-16T06:01:17;18.27;;;16.43;;
9968;SDS011;5025;48.890;9.278;2023-05-16T06:03:42;23.97;;;21.57;;
9968;SDS011;5025;48.890;9.278;2023-05-16T06:06:07;19.87;;;17.97;;
9968;SDS011;5025;48.890;9.278;2023-05-16T06:08:33;19.93;;;18.07;;
9968;SDS011;5025;48.890;9.278;2023-05-16T06:10:59;21.77;;;19.57;;
9968;SDS011;5025;48.890;9.278;2023-05-16T06:13:24;19.40;;;17.60;;
9968;SDS011;5025;48.890;9.278;2023-05-16T06:15:50;19.23;;;17.40;;
9968;SDS011;5025;48.890;9.278;2023-05-16T06:18:16;17.50;;;15.90;;
9968;SDS011;5025;48.890;9.278;2023-05-16T06:20:41;19.60;;;17.70;;
9968;SDS011;5025;48.890;9.278;2023-05-16T06:23:06;18.70;;;16.97;;
9968;SDS011;5025;48.890;9.278;2023-05-16T06:25:32;18.70;;;16.90;;
9968;SDS011;5025;48.890;9.278;2023-05-16T06:27:57;22.17;;;19.97;;
9968;SDS011;5025;48.890;9.278;2023-05-16T06:30:22;19.10;;;17.20;;
9968;SDS011;5025;48.890;9.278;2023-05-16T06:32:47;18.67;;;16.87;;
9968;SDS011;5025;48.890;9.278;2023-05-16T06:35:13;20.83;;;18.93;;
9968;SDS011;5025;48.890;9.278;2023-05-16T06:37:38;22.37;;;19.80;;
9968;SDS011;5025;48.890;9.278;2023-05-16T06:40:04;22.63;;;20.43;;
9968;SDS011;5025;48.890;9.278;2023-05-16T06:42:29;22.97;;;20.63;;
9968;SDS011;5025;48.890;9.278;2023-05-16T06:44:55;21.50;;;19.40;;
9968;SDS011;5025;48.890;9.278;2023-05-16T06:47:20;22.20;;;20.00;;
9968;SDS011;5025;48.890;9.278;2023-05-16T06:49:45;19.77;;;17.97;;
9968;SDS011;5025;48.890;9.278;2023-05-16T06:52:11;21.10;;;18.90;;
9968;SDS011;5025;48.890;9.278;2023-05-16T06:54:36;18.80;;;17.00;;
9968;SDS011;5025;48.890;9.278;2023-05-16T06:57:02;19.93;;;18.03;;
9968;SDS011;5025;48.890;9.278;2023-05-16T06:59:28;16.73;;;15.23;;
9968;SDS011;5025;48.890;9.278;2023-05-16T07:01:53;21.83;;;19.63;;
9968;SDS011;5025;48.890;9.278;2023-05-16T07:04:18;18.20;;;16.27;;
9968;SDS011;5025;48.890;9.278;2023-05-16T07:06:44;17.67;;;16.07;;
9968;SDS011;5025;48.890;9.278;2023-05-16T07:09:09;20.80;;;18.70;;
9968;SDS011;5025;48.890;9.278;2023-05-16T07:11:34;20.83;;;18.83;;
9968;SDS011;5025;48.890;9.278;2023-05-16T07:14:00;17.53;;;16.00;;
9968;SDS011;5025;48.890;9.278;2023-05-16T07:16:25;16.13;;;14.70;;
9968;SDS011;5025;48.890;9.278;2023-05-16T07:18:52;15.33;;;13.93;;
9968;SDS011;5025;48.890;9.278;2023-05-16T07:21:17;17.80;;;16.20;;
9968;SDS011;5025;48.890;9.278;2023-05-16T07:23:43;17.23;;;15.63;;
9968;SDS011;5025;48.890;9.278;2023-05-16T07:26:08;15.13;;;13.77;;
9968;SDS011;5025;48.890;9.278;2023-05-16T07:28:33;21.50;;;19.27;;
9968;SDS011;5025;48.890;9.278;2023-05-16T07:30:58;21.03;;;18.80;;
9968;SDS011;5025;48.890;9.278;2023-05-16T07:33:24;20.23;;;18.27;;
9968;SDS011;5025;48.890;9.278;2023-05-16T07:35:51;21.20;;;18.50;;
9968;SDS011;5025;48.890;9.278;2023-05-16T07:38:17;17.93;;;16.27;;
9968;SDS011;5025;48.890;9.278;2023-05-16T07:40:43;17.97;;;16.27;;
9968;SDS011;5025;48.890;9.278;2023-05-16T07:43:08;16.80;;;15.30;;
9968;SDS011;5025;48.890;9.278;2023-05-16T07:45:33;15.73;;;14.33;;
9968;SDS011;5025;48.890;9.278;2023-05-16T07:47:59;16.10;;;14.67;;
9968;SDS011;5025;48.890;9.278;2023-05-16T07:50:24;17.20;;;15.50;;
9968;SDS011;5025;48.890;9.278;2023-05-16T07:52:49;17.27;;;15.57;;
9968;SDS011;5025;48.890;9.278;2023-05-16T07:55:15;14.57;;;13.37;;
9968;SDS011;5025;48.890;9.278;2023-05-16T07:57:40;16.80;;;15.40;;
9968;SDS011;5025;48.890;9.278;2023-05-16T08:00:07;18.03;;;15.93;;
9968;SDS011;5025;48.890;9.278;2023-05-16T08:02:33;16.13;;;14.63;;
9968;SDS011;5025;48.890;9.278;2023-05-16T08:04:58;15.93;;;14.53;;
9968;SDS011;5025;48.890;9.278;2023-05-16T08:07:24;15.33;;;14.03;;
9968;SDS011;5025;48.890;9.278;2023-05-16T08:09:49;14.47;;;13.17;;
9968;SDS011;5025;48.890;9.278;2023-05-16T08:12:14;14.13;;;12.93;;
9968;SDS011;5025;48.890;9.278;2023-05-16T08:14:40;13.73;;;12.50;;
9968;SDS011;5025;48.890;9.278;2023-05-16T08:17:05;13.67;;;12.47;;
9968;SDS011;5025;48.890;9.278;2023-05-16T08:19:31;12.93;;;11.73;;
9968;SDS011;5025;48.890;9.278;2023-05-16T08:21:57;11.87;;;10.83;;
9968;SDS011;5025;48.890;9.278;2023-05-16T08:24:22;10.93;;;9.97;;
9968;SDS011;5025;48.890;9.278;2023-05-16T08:26:48;10.00;;;9.20;;
9968;SDS011;5025;48.890;9.278;2023-05-16T08:29:13;11.30;;;10.37;;
9968;SDS011;5025;48.890;9.278;2023-05-16T08:31:39;13.10;;;12.00;;
9968;SDS011;5025;48.890;9.278;2023-05-16T08:34:04;12.40;;;11.30;;
9968;SDS011;5025;48.890;9.278;2023-05-16T08:36:30;13.43;;;12.23;;
9968;SDS011;5025;48.890;9.278;2023-05-16T08:38:58;11.07;;;10.27;;
9968;SDS011;5025;48.890;9.278;2023-05-16T08:41:24;10.73;;;9.93;;
9968;SDS011;5025;48.890;9.278;2023-05-16T08:43:49;10.93;;;10.10;;
9968;SDS011;5025;48.890;9.278;2023-05-16T08:46:16;13.00;;;11.93;;
9968;SDS011;5025;48.890;9.278;2023-05-16T08:48:45;11.37;;;10.47;;
9968;SDS011;5025;48.890;9.278;2023-05-16T08:51:14;12.93;;;11.83;;
9968;SDS011;5025;48.890;9.278;2023-05-16T08:53:44;11.17;;;10.27;;
9968;SDS011;5025;48.890;9.278;2023-05-16T08:56:13;14.27;;;13.00;;
9968;SDS011;5025;48.890;9.278;2023-05-16T08:58:41;13.90;;;12.73;;
9968;SDS011;5025;48.890;9.278;2023-05-16T09:01:06;14.20;;;12.90;;
9968;SDS011;5025;48.890;9.278;2023-05-16T09:03:36;12.53;;;11.43;;
9968;SDS011;5025;48.890;9.278;2023-05-16T09:06:05;11.17;;;10.27;;
9968;SDS011;5025;48.890;9.278;2023-05-16T09:08:31;11.30;;;10.30;;
9968;SDS011;5025;48.890;9.278;2023-05-16T09:10:57;12.60;;;11.50;;
9968;SDS011;5025;48.890;9.278;2023-05-16T09:13:23;12.37;;;11.23;;
9968;SDS011;5025;48.890;9.278;2023-05-16T09:16:11;14.50;;;13.23;;
9968;SDS011;5025;48.890;9.278;2023-05-16T09:18:38;13.60;;;12.33;;
9968;SDS011;5025;48.890;9.278;2023-05-16T09:21:04;12.87;;;11.67;;
9968;SDS011;5025;48.890;9.278;2023-05-16T09:23:31;13.37;;;12.23;;
9968;SDS011;5025;48.890;9.278;2023-05-16T09:25:57;14.67;;;13.37;;
9968;SDS011;5025;48.890;9.278;2023-05-16T09:28:24;13.90;;;12.70;;
9968;SDS011;5025;48.890;9.278;2023-05-16T09:30:51;12.17;;;11.17;;
9968;SDS011;5025;48.890;9.278;2023-05-16T09:33:18;14.00;;;12.77;;
9968;SDS011;5025;48.890;9.278;2023-05-16T09:35:46;14.30;;;13.00;;
9968;SDS011;5025;48.890;9.278;2023-05-16T09:38:18;14.87;;;13.47;;
9968;SDS011;5025;48.890;9.278;2023-05-16T09:40:44;13.87;;;12.60;;
9968;SDS011;5025;48.890;9.278;2023-05-16T09:43:09;14.63;;;13.30;;
9968;SDS011;5025;48.890;9.278;2023-05-16T09:45:43;14.83;;;13.43;;
9968;SDS011;5025;48.890;9.278;2023-05-16T09:48:10;14.37;;;13.07;;
9968;SDS011;5025;48.890;9.278;2023-05-16T09:50:37;13.17;;;12.07;;
9968;SDS011;5025;48.890;9.278;2023-05-16T09:53:02;13.13;;;12.03;;
9968;SDS011;5025;48.890;9.278;2023-05-16T09:55:28;12.47;;;11.37;;
9968;SDS011;5025;48.890;9.278;2023-05-16T09:57:54;13.47;;;12.27;;
9968;SDS011;5025;48.890;9.278;2023-05-16T10:00:20;12.60;;;11.50;;
9968;SDS011;5025;48.890;9.278;2023-05-16T10:02:48;12.87;;;11.77;;
9968;SDS011;5025;48.890;9.278;2023-05-16T10:05:15;12.93;;;11.83;;
9968;SDS011;5025;48.890;9.278;2023-05-16T10:07:41;13.73;;;12.50;;
9968;SDS011;5025;48.890;9.278;2023-05-16T10:10:08;16.63;;;15.03;;
9968;SDS011;5025;48.890;9.278;2023-05-16T10:12:34;13.30;;;12.10;;
9968;SDS011;5025;48.890;9.278;2023-05-16T10:15:01;12.70;;;11.60;;
9968;SDS011;5025;48.890;9.278;2023-05-16T10:17:29;13.20;;;12.00;;
9968;SDS011;5025;48.890;9.278;2023-05-16T10:19:57;13.27;;;12.07;;
9968;SDS011;5025;48.890;9.278;2023-05-16T10:22:32;14.37;;;13.17;;
9968;SDS011;5025;48.890;9.278;2023-05-16T10:25:01;13.63;;;12.43;;
9968;SDS011;5025;48.890;9.278;2023-05-16T10:27:33;13.20;;;11.87;;
9968;SDS011;5025;48.890;9.278;2023-05-16T10:29:59;12.80;;;11.70;;
9968;SDS011;5025;48.890;9.278;2023-05-16T10:32:25;13.03;;;11.93;;
9968;SDS011;5025;48.890;9.278;2023-05-16T10:34:52;12.47;;;11.37;;
9968;SDS011;5025;48.890;9.278;2023-05-16T10:37:20;12.80;;;11.70;;
9968;SDS011;5025;48.890;9.278;2023-05-16T10:39:46;12.33;;;11.23;;
9968;SDS011;5025;48.890;9.278;2023-05-16T10:42:12;12.90;;;11.70;;
9968;SDS011;5025;48.890;9.278;2023-05-16T10:44:42;12.20;;;11.20;;
9968;SDS011;5025;48.890;9.278;2023-05-16T10:47:07;11.50;;;10.50;;
9968;SDS011;5025;48.890;9.278;2023-05-16T10:49:32;11.73;;;10.77;;
9968;SDS011;5025;48.890;9.278;2023-05-16T10:52:15;10.80;;;9.90;;
9968;SDS011;5025;48.890;9.278;2023-05-16T10:54:42;13.37;;;12.17;;
9968;SDS011;5025;48.890;9.278;2023-05-16T10:57:15;14.23;;;13.00;;
9968;SDS011;5025;48.890;9.278;2023-05-16T10:59:44;14.03;;;12.67;;
9968;SDS011;5025;48.890;9.278;2023-05-16T11:02:21;15.00;;;13.60;;
9968;SDS011;5025;48.890;9.278;2023-05-16T11:04:49;15.90;;;14.40;;
9968;SDS011;5025;48.890;9.278;2023-05-16T11:07:17;15.90;;;14.40;;
9968;SDS011;5025;48.890;9.278;2023-05-16T11:09:43;15.20;;;13.83;;
9968;SDS011;5025;48.890;9.278;2023-05-16T11:12:10;14.60;;;13.20;;
9968;SDS011;5025;48.890;9.278;2023-05-16T11:14:38;12.70;;;11.60;;
9968;SDS011;5025;48.890;9.278;2023-05-16T11:19:32;11.60;;;10.60;;
9968;SDS011;5025;48.890;9.278;2023-05-16T11:24:32;10.97;;;9.97;;
9968;SDS011;5025;48.890;9.278;2023-05-16T11:26:59;10.03;;;9.17;;
9968;SDS011;5025;48.890;9.278;2023-05-16T11:29:26;9.67;;;8.87;;
9968;SDS011;5025;48.890;9.278;2023-05-16T11:31:52;9.50;;;8.70;;
9968;SDS011;5025;48.890;9.278;2023-05-16T11:34:18;10.37;;;9.33;;
9968;SDS011;5025;48.890;9.278;2023-05-16T11:36:43;9.27;;;8.47;;
9968;SDS011;5025;48.890;9.278;2023-05-16T11:39:08;9.10;;;8.30;;
9968;SDS011;5025;48.890;9.278;2023-05-16T11:41:34;9.27;;;8.43;;
9968;SDS011;5025;48.890;9.278;2023-05-16T11:44:00;9.17;;;8.37;;
9968;SDS011;5025;48.890;9.278;2023-05-16T11:46:25;8.37;;;7.67;;
9968;SDS011;5025;48.890;9.278;2023-05-16T11:48:51;8.50;;;7.80;;
9968;SDS011;5025;48.890;9.278;2023-05-16T11:51:17;8.20;;;7.50;;
9968;SDS011;5025;48.890;9.278;2023-05-16T11:53:45;7.53;;;6.93;;
9968;SDS011;5025;48.890;9.278;2023-05-16T11:56:13;6.63;;;6.10;;
9968;SDS011;5025;48.890;9.278;2023-05-16T11:58:38;6.70;;;6.10;;
9968;SDS011;5025;48.890;9.278;2023-05-16T12:01:03;6.20;;;5.80;;
9968;SDS011;5025;48.890;9.278;2023-05-16T12:03:29;6.27;;;5.77;;
9968;SDS011;5025;48.890;9.278;2023-05-16T12:05:57;6.23;;;5.83;;
9968;SDS011;5025;48.890;9.278;2023-05-16T12:08:23;5.60;;;5.20;;
9968;SDS011;5025;48.890;9.278;2023-05-16T12:10:51;5.97;;;5.57;;
9968;SDS011;5025;48.890;9.278;2023-05-16T12:13:18;5.33;;;4.93;;
9968;SDS011;5025;48.890;9.278;2023-05-16T12:15:45;5.27;;;4.87;;
9968;SDS011;5025;48.890;9.278;2023-05-16T12:18:11;5.63;;;5.23;;
9968;SDS011;5025;48.890;9.278;2023-05-16T12:20:37;5.63;;;5.23;;
9968;SDS011;5025;48.890;9.278;2023-05-16T12:23:03;4.50;;;4.20;;
9968;SDS011;5025;48.890;9.278;2023-05-16T12:25:31;4.90;;;4.20;;
9968;SDS011;5025;48.890;9.278;2023-05-16T12:28:01;5.17;;;4.77;;
9968;SDS011;5025;48.890;9.278;2023-05-16T12:30:31;4.80;;;4.43;;
9968;SDS011;5025;48.890;9.278;2023-05-16T12:32:57;4.90;;;4.60;;
9968;SDS011;5025;48.890;9.278;2023-05-16T12:35:30;4.53;;;4.23;;
9968;SDS011;5025;48.890;9.278;2023-05-16T12:37:57;4.50;;;4.20;;
9968;SDS011;5025;48.890;9.278;2023-05-16T12:40:22;3.90;;;3.70;;
9968;SDS011;5025;48.890;9.278;2023-05-16T12:42:55;3.93;;;3.73;;
9968;SDS011;5025;48.890;9.278;2023-05-16T12:45:20;3.90;;;3.70;;
9968;SDS011;5025;48.890;9.278;2023-05-16T12:47:46;4.23;;;3.93;;
9968;SDS011;5025;48.890;9.278;2023-05-16T12:50:12;4.03;;;3.83;;
9968;SDS011;5025;48.890;9.278;2023-05-16T12:55:22;3.70;;;3.43;;
9968;SDS011;5025;48.890;9.278;2023-05-16T12:57:48;3.63;;;3.43;;
9968;SDS011;5025;48.890;9.278;2023-05-16T13:00:14;3.77;;;3.57;;
9968;SDS011;5025;48.890;9.278;2023-05-16T13:02:43;3.50;;;3.30;;
9968;SDS011;5025;48.890;9.278;2023-05-16T13:05:08;3.40;;;3.20;;
9968;SDS011;5025;48.890;9.278;2023-05-16T13:07:34;3.43;;;3.23;;
9968;SDS011;5025;48.890;9.278;2023-05-16T13:10:00;3.03;;;2.93;;
9968;SDS011;5025;48.890;9.278;2023-05-16T13:12:25;2.70;;;2.50;;
9968;SDS011;5025;48.890;9.278;2023-05-16T13:14:51;2.93;;;2.83;;
9968;SDS011;5025;48.890;9.278;2023-05-16T13:17:17;4.27;;;3.27;;
9968;SDS011;5025;48.890;9.278;2023-05-16T13:19:42;2.83;;;2.73;;
9968;SDS011;5025;48.890;9.278;2023-05-16T13:22:07;4.93;;;3.17;;
9968;SDS011;5025;48.890;9.278;2023-05-16T13:24:32;2.80;;;2.70;;
9968;SDS011;5025;48.890;9.278;2023-05-16T13:26:58;2.40;;;2.30;;
9968;SDS011;5025;48.890;9.278;2023-05-16T13:29:23;2.60;;;2.40;;
9968;SDS011;5025;48.890;9.278;2023-05-16T13:31:49;2.80;;;2.60;;
9968;SDS011;5025;48.890;9.278;2023-05-16T13:34:14;2.90;;;2.80;;
9968;SDS011;5025;48.890;9.278;2023-05-16T13:36:39;2.33;;;2.23;;
9968;SDS011;5025;48.890;9.278;2023-05-16T13:39:05;2.30;;;2.20;;
9968;SDS011;5025;48.890;9.278;2023-05-16T13:41:30;2.10;;;2.00;;
9968;SDS011;5025;48.890;9.278;2023-05-16T13:43:56;2.30;;;2.20;;
9968;SDS011;5025;48.890;9.278;2023-05-16T13:46:21;2.60;;;2.40;;
9968;SDS011;5025;48.890;9.278;2023-05-16T13:48:46;2.33;;;2.23;;
9968;SDS011;5025;48.890;9.278;2023-05-16T13:51:11;2.47;;;2.37;;
9968;SDS011;5025;48.890;9.278;2023-05-16T13:53:37;2.50;;;2.40;;
9968;SDS011;5025;48.890;9.278;2023-05-16T13:56:03;2.60;;;2.50;;
9968;SDS011;5025;48.890;9.278;2023-05-16T13:58:29;2.53;;;2.40;;
9968;SDS011;5025;48.890;9.278;2023-05-16T14:00:54;2.30;;;2.20;;
9968;SDS011;5025;48.890;9.278;2023-05-16T14:03:19;2.20;;;2.10;;
9968;SDS011;5025;48.890;9.278;2023-05-16T14:05:45;3.20;;;2.90;;
9968;SDS011;5025;48.890;9.278;2023-05-16T14:08:10;2.30;;;2.20;;
9968;SDS011;5025;48.890;9.278;2023-05-16T14:10:35;2.40;;;2.30;;
9968;SDS011;5025;48.890;9.278;2023-05-16T14:13:01;1.90;;;1.90;;
9968;SDS011;5025;48.890;9.278;2023-05-16T14:15:26;2.17;;;2.07;;
9968;SDS011;5025;48.890;9.278;2023-05-16T14:17:51;2.20;;;2.10;;
9968;SDS011;5025;48.890;9.278;2023-05-16T14:20:16;2.20;;;2.10;;
9968;SDS011;5025;48.890;9.278;2023-05-16T14:22:42;2.10;;;2.00;;
9968;SDS011;5025;48.890;9.278;2023-05-16T14:25:07;2.20;;;2.10;;
9968;SDS011;5025;48.890;9.278;2023-05-16T14:27:32;1.90;;;1.80;;
9968;SDS011;5025;48.890;9.278;2023-05-16T14:29:58;2.00;;;1.90;;
9968;SDS011;5025;48.890;9.278;2023-05-16T14:32:23;2.00;;;1.90;;
9968;SDS011;5025;48.890;9.278;2023-05-16T14:34:48;1.70;;;1.70;;
9968;SDS011;5025;48.890;9.278;2023-05-16T14:37:14;2.00;;;1.90;;
9968;SDS011;5025;48.890;9.278;2023-05-16T14:39:40;1.83;;;1.73;;
9968;SDS011;5025;48.890;9.278;2023-05-16T14:42:06;2.00;;;1.90;;
9968;SDS011;5025;48.890;9.278;2023-05-16T14:44:31;1.80;;;1.80;;
9968;SDS011;5025;48.890;9.278;2023-05-16T14:46:57;2.23;;;2.03;;
9968;SDS011;5025;48.890;9.278;2023-05-16T14:49:22;2.40;;;2.17;;
9968;SDS011;5025;48.890;9.278;2023-05-16T14:51:47;2.03;;;2.00;;
9968;SDS011;5025;48.890;9.278;2023-05-16T14:54:15;2.03;;;1.80;;
9968;SDS011;5025;48.890;9.278;2023-05-16T14:56:41;2.33;;;1.80;;
9968;SDS011;5025;48.890;9.278;2023-05-16T14:59:06;1.90;;;1.70;;
9968;SDS011;5025;48.890;9.278;2023-05-16T15:01:31;1.97;;;1.87;;
9968;SDS011;5025;48.890;9.278;2023-05-16T15:03:56;1.70;;;1.60;;
9968;SDS011;5025;48.890;9.278;2023-05-16T15:06:22;1.63;;;1.53;;
9968;SDS011;5025;48.890;9.278;2023-05-16T15:08:48;1.53;;;1.50;;
9968;SDS011;5025;48.890;9.278;2023-05-16T15:11:13;1.87;;;1.77;;
9968;SDS011;5025;48.890;9.278;2023-05-16T15:13:38;1.73;;;1.60;;